Portada
METAR-TAF:

METAR-TAF

Aeroports :

Nakhon Ratchasima, Tailàndia

latitud: 14-56-58N, longitud: 102-18-45E, altitud: 233 m

Observació

L'informe es va fer fa 40 minuts, a les 00:00 UTC
Vent 2 kt amb direcció variable
Temperatura 27°C
Humitat 79%
Pressió 1010 hPa
Visibilitat: 6000 m

METAR: VTUQ 300000Z VRB02KT 6000 NSC 27/23 Q1010 NOSIG

Hora: 07:40 (00:40 UTC)

Pronòstic

L'informe es va fer fa 1 hora i 40 minuts, a les 23:00 UTC
Pronòstic vàlid del 30 a les 00 UTC al 30 a les 24 UTC
Vent 5 kt del Sud-Oest
Visibilitat: 9000 m
Escasses núvols a una alçada de 3000 ft

TAF: VTUQ 292300Z 3000/3024 22005KT 9000 FEW030

Observacions i pronòstics meteorològics de més de 4000 aeroports (METAR i TAF).

Les estacions disponibles són els punts grocs i vermells al mapa.

Posi el ratolí al punt desitjat per veure el nom de l'estació.

Feu clic per veure les observacions i els pronòstics meteorològics.

Per canviar el mapa: feu clic els botons verds amb una creu de color negre per apropar; al botó verd amb un guió per allunyar la imatge; o en les fletxes verdes per a mapes adjacents.


METAR-TAF: